Time;durP1;ratioP1;P1;durP2;ratioP2;P2;SDS_P1;SDS_P2;PMS_P1;PMS_P2;Temp;Humidity;BMP_temperature;BMP_pressure;BME280_temperature;BME280_humidity;BME280_pressure;Samples;Min_cycle;Max_cycle;Signal;HPM_P1;HPM_P2
2022/01/23 00:00:41;;;;;;;3.55;3.08;;;18.60;31.50;;;;;;5085635;28;46913;-14
2022/01/23 00:03:16;;;;;;;3.35;3.00;;;18.60;31.50;;;;;;5084206;28;47065;-13
2022/01/23 00:05:44;;;;;;;5.22;3.33;;;18.50;31.40;;;;;;5085932;28;47023;-14
2022/01/23 00:08:12;;;;;;;3.33;2.90;;;18.50;31.50;;;;;;5085338;28;48217;-14
2022/01/23 00:10:39;;;;;;;3.63;3.10;;;18.50;31.50;;;;;;5085465;28;46818;-14
2022/01/23 00:13:12;;;;;;;3.85;3.10;;;18.50;31.50;;;;;;5085357;28;46886;-13
2022/01/23 00:18:24;;;;;;;3.67;3.03;;;18.60;31.50;;;;;;5083043;28;46806;-14
2022/01/23 00:20:51;;;;;;;4.70;3.35;;;18.60;31.50;;;;;;5085332;28;46835;-14
2022/01/23 00:23:30;;;;;;;3.75;3.30;;;18.50;31.50;;;;;;5085206;28;46896;-14
2022/01/23 00:31:26;;;;;;;3.65;3.08;;;18.50;31.50;;;;;;5082465;28;47095;-13
2022/01/23 00:33:54;;;;;;;3.55;3.08;;;18.60;31.60;;;;;;5084641;28;46885;-14
2022/01/23 00:36:22;;;;;;;3.70;3.13;;;18.60;31.60;;;;;;5085405;28;47135;-14
2022/01/23 00:38:48;;;;;;;4.28;3.00;;;18.60;31.50;;;;;;5085010;28;48273;-14
2022/01/23 00:41:15;;;;;;;3.28;2.90;;;18.60;31.50;;;;;;5085102;28;47529;-14
2022/01/23 00:43:43;;;;;;;3.15;2.90;;;18.60;31.60;;;;;;5084809;28;47024;-14
2022/01/23 00:46:22;;;;;;;4.25;3.20;;;18.50;31.50;;;;;;5084985;28;46855;-13
2022/01/23 00:49:12;;;;;;;2.97;2.67;;;18.60;31.60;;;;;;5084300;28;48029;-13
2022/01/23 00:51:40;;;;;;;3.92;3.33;;;18.60;31.60;;;;;;5084580;28;46916;-13
2022/01/23 00:54:08;;;;;;;3.00;2.70;;;18.60;31.60;;;;;;5084911;28;46772;-14
2022/01/23 00:56:34;;;;;;;4.10;2.80;;;18.60;31.60;;;;;;5085193;27;46949;-14
2022/01/23 00:59:01;;;;;;;4.13;2.90;;;18.50;31.50;;;;;;5084708;28;48214;-13
2022/01/23 01:01:28;;;;;;;2.95;2.70;;;18.50;31.60;;;;;;5085019;28;46897;-14
2022/01/23 01:03:55;;;;;;;4.53;3.05;;;18.50;31.60;;;;;;5084554;28;46838;-14
2022/01/23 01:06:21;;;;;;;3.00;2.70;;;18.50;31.60;;;;;;5085197;28;46838;-14
2022/01/23 01:08:51;;;;;;;4.22;3.00;;;18.60;31.70;;;;;;5084211;28;48781;-14
2022/01/23 01:11:42;;;;;;;4.07;2.97;;;18.60;31.70;;;;;;5084793;28;46849;-14
2022/01/23 01:14:23;;;;;;;3.20;2.80;;;18.60;31.60;;;;;;5085126;27;46814;-14
2022/01/23 01:16:58;;;;;;;3.42;3.00;;;18.60;31.60;;;;;;5088627;28;46977;-14
2022/01/23 01:30:31;;;;;;;3.63;2.83;;;18.60;31.60;;;;;;5085257;28;47446;-14
2022/01/23 01:33:09;;;;;;;4.43;3.10;;;18.60;31.60;;;;;;5087803;28;46779;-13
2022/01/23 01:35:40;;;;;;;3.30;2.45;;;18.60;31.60;;;;;;5087923;28;46809;-14
2022/01/23 01:38:07;;;;;;;3.67;2.70;;;18.60;31.60;;;;;;5087785;28;46908;-13
2022/01/23 01:40:36;;;;;;;3.10;2.80;;;18.60;31.70;;;;;;5087827;28;47899;-14
2022/01/23 01:43:03;;;;;;;3.28;2.65;;;18.60;31.70;;;;;;5087391;28;47067;-13
2022/01/23 01:45:30;;;;;;;3.53;2.88;;;18.60;31.70;;;;;;5087525;28;46807;-14
2022/01/23 01:47:59;;;;;;;3.15;2.78;;;18.60;31.70;;;;;;5087979;28;46997;-14
2022/01/23 01:50:26;;;;;;;2.72;2.53;;;18.60;31.70;;;;;;5087284;28;47863;-13
2022/01/23 01:52:53;;;;;;;3.17;2.88;;;18.60;31.70;;;;;;5087434;28;47321;-14
2022/01/23 01:55:25;;;;;;;3.33;2.83;;;18.60;31.70;;;;;;5087860;28;46823;-15
2022/01/23 01:57:56;;;;;;;3.35;2.88;;;18.60;31.70;;;;;;5087970;28;47021;-14
2022/01/23 02:00:39;;;;;;;2.88;2.58;;;18.60;31.80;;;;;;5087692;28;49053;-13
2022/01/23 02:08:16;;;;;;;3.30;2.78;;;18.60;31.80;;;;;;5087537;28;46977;-23
2022/01/23 02:08:57;;;;;;;3.13;2.83;;;18.60;31.80;;;;;;5086052;28;47001;-14
2022/01/23 02:11:37;;;;;;;2.70;2.45;;;18.60;31.70;;;;;;5087077;28;46828;-13
2022/01/23 02:14:16;;;;;;;3.08;2.72;;;18.60;31.70;;;;;;5087578;28;47444;-14
2022/01/23 02:17:13;;;;;;;3.83;2.80;;;18.60;31.80;;;;;;5087565;28;46885;-13
2022/01/23 02:22:48;;;;;;;2.65;2.33;;;18.50;31.90;;;;;;5084342;28;47446;-14
2022/01/23 02:25:40;;;;;;;2.97;2.53;;;18.50;31.90;;;;;;5086487;27;46957;-14
2022/01/23 02:53:14;;;;;;;3.13;2.53;;;18.40;32.00;;;;;;5084050;28;46815;-14
2022/01/23 02:55:44;;;;;;;3.55;2.25;;;18.40;32.00;;;;;;5086335;28;46874;-14
2022/01/23 02:58:13;;;;;;;2.78;2.50;;;18.40;32.00;;;;;;5086535;28;46823;-14
2022/01/23 03:00:49;;;;;;;3.30;2.85;;;18.50;32.10;;;;;;5086508;28;46840;-13
2022/01/23 03:03:22;;;;;;;2.63;2.42;;;18.50;32.10;;;;;;5086524;28;47210;-13
2022/01/23 03:06:09;;;;;;;2.63;2.42;;;18.50;32.00;;;;;;5086262;28;49138;-14
2022/01/23 03:08:59;;;;;;;2.47;2.28;;;18.50;32.00;;;;;;5086131;28;47435;-14
2022/01/23 03:11:47;;;;;;;3.72;2.50;;;18.50;32.00;;;;;;5086264;28;46912;-14
2022/01/23 03:14:19;;;;;;;3.05;2.30;;;18.50;32.00;;;;;;5086600;28;46852;-13
2022/01/23 03:25:33;;;;;;;3.35;2.42;;;18.50;32.00;;;;;;5041039;28;47216;-14
2022/01/23 03:28:18;;;;;;;2.75;2.10;;;18.50;32.00;;;;;;5072470;27;47100;-13
2022/01/23 03:30:53;;;;;;;2.47;2.22;;;18.40;32.00;;;;;;5086092;28;46889;-14
2022/01/23 03:33:20;;;;;;;2.22;2.03;;;18.40;32.00;;;;;;5085804;28;47016;-20
2022/01/23 03:35:46;;;;;;;2.80;2.47;;;18.40;32.10;;;;;;5086219;28;46862;-20
2022/01/23 03:38:13;;;;;;;2.50;2.13;;;18.40;32.20;;;;;;5085706;27;46908;-20
2022/01/23 03:40:40;;;;;;;2.13;1.90;;;18.40;32.20;;;;;;5085646;28;46800;-22
2022/01/23 03:43:11;;;;;;;3.03;2.10;;;18.40;32.20;;;;;;5086035;28;47052;-21
2022/01/23 03:45:58;;;;;;;2.45;2.25;;;18.40;32.20;;;;;;5086505;28;47162;-20
2022/01/23 03:51:09;;;;;;;2.47;2.28;;;18.30;32.20;;;;;;5082983;28;47026;-20
2022/01/23 03:53:36;;;;;;;2.40;2.10;;;18.30;32.20;;;;;;5085691;28;46759;-20
2022/01/23 03:56:03;;;;;;;3.28;2.15;;;18.30;32.20;;;;;;5085693;28;46836;-21
2022/01/23 03:58:31;;;;;;;2.17;1.98;;;18.30;32.20;;;;;;5085400;28;47998;-20
2022/01/23 04:00:58;;;;;;;2.08;1.92;;;18.30;32.30;;;;;;5085670;28;47422;-21
2022/01/23 04:03:25;;;;;;;3.38;2.00;;;18.30;32.20;;;;;;5085260;28;47028;-20
2022/01/23 04:05:51;;;;;;;2.22;2.03;;;18.30;32.20;;;;;;5085851;27;47097;-14
2022/01/23 04:08:18;;;;;;;2.28;2.08;;;18.30;32.20;;;;;;5085360;28;47911;-13
2022/01/23 04:10:45;;;;;;;2.30;1.70;;;18.30;32.10;;;;;;5085132;28;46995;-14
2022/01/23 04:13:17;;;;;;;2.10;1.90;;;18.30;32.20;;;;;;5085361;28;46961;-14
2022/01/23 04:15:51;;;;;;;1.90;1.80;;;18.30;32.20;;;;;;5085931;28;46912;-14
2022/01/23 04:19:03;;;;;;;2.20;2.00;;;18.30;32.20;;;;;;5084977;28;46873;-13
2022/01/23 04:31:39;;;;;;;2.40;2.00;;;18.30;32.10;;;;;;5084940;28;47006;-14
2022/01/23 04:32:40;;;;;;;1.88;1.77;;;18.30;32.10;;;;;;5082498;28;46799;-14
2022/01/23 04:35:31;;;;;;;1.98;1.67;;;18.30;32.10;;;;;;5085280;27;47121;-20
2022/01/23 04:46:31;;;;;;;1.80;1.50;;;18.30;32.00;;;;;;5082420;28;46865;-21
2022/01/23 04:59:32;;;;;;;1.70;1.60;;;18.30;32.10;;;;;;5085382;27;46839;-21
2022/01/23 05:00:04;;;;;;;1.98;1.77;;;18.30;32.00;;;;;;5086163;28;46838;-14
2022/01/23 05:03:02;;;;;;;1.67;1.58;;;18.30;32.00;;;;;;5088255;28;47951;-14
2022/01/23 05:05:30;;;;;;;2.10;1.90;;;18.30;32.00;;;;;;5088198;28;46953;-14
2022/01/23 05:07:57;;;;;;;2.15;1.95;;;18.20;32.00;;;;;;5088444;28;46739;-13
2022/01/23 05:10:24;;;;;;;2.65;1.60;;;18.20;32.00;;;;;;5088242;28;47257;-14
2022/01/23 05:12:50;;;;;;;1.70;1.60;;;18.20;31.90;;;;;;5088011;28;47842;-14
2022/01/23 05:15:17;;;;;;;1.60;1.50;;;18.20;31.90;;;;;;5088359;28;47217;-14
2022/01/23 05:17:44;;;;;;;1.90;1.80;;;18.30;31.90;;;;;;5088230;28;46890;-14
2022/01/23 05:20:14;;;;;;;1.92;1.63;;;18.30;31.90;;;;;;5088243;28;47236;-13
2022/01/23 05:22:46;;;;;;;1.90;1.80;;;18.30;31.90;;;;;;5088003;28;48684;-14
2022/01/23 05:25:18;;;;;;;1.50;1.40;;;18.30;31.90;;;;;;5088347;28;46833;-14
2022/01/23 05:27:45;;;;;;;1.77;1.67;;;18.30;31.90;;;;;;5088150;28;46838;-13
2022/01/23 05:30:12;;;;;;;2.00;1.85;;;18.30;31.90;;;;;;5088224;28;46911;-13
2022/01/23 05:32:41;;;;;;;2.20;1.92;;;18.30;31.80;;;;;;5087720;28;47176;-16
2022/01/23 05:35:09;;;;;;;2.13;1.60;;;18.30;31.80;;;;;;5087751;28;46983;-14
2022/01/23 05:37:37;;;;;;;1.88;1.60;;;18.30;31.70;;;;;;5087857;28;46823;-14
2022/01/23 05:40:08;;;;;;;1.67;1.58;;;18.30;31.80;;;;;;5087803;28;46886;-14
2022/01/23 05:42:35;;;;;;;2.08;1.85;;;18.30;31.80;;;;;;5087926;27;48184;-13
2022/01/23 05:45:02;;;;;;;1.60;1.50;;;18.30;31.80;;;;;;5087737;28;47476;-14
2022/01/23 05:47:28;;;;;;;2.17;1.90;;;18.30;31.70;;;;;;5087541;28;46912;-13
2022/01/23 05:49:55;;;;;;;1.70;1.60;;;18.30;31.70;;;;;;5087566;28;47407;-14
2022/01/23 05:52:22;;;;;;;1.67;1.58;;;18.30;31.70;;;;;;5087572;28;48131;-13
2022/01/23 05:54:48;;;;;;;1.73;1.63;;;18.30;31.70;;;;;;5087293;28;47421;-14
2022/01/23 05:57:16;;;;;;;2.08;1.80;;;18.30;31.70;;;;;;5087447;28;46809;-14
2022/01/23 05:59:43;;;;;;;1.77;1.60;;;18.30;31.70;;;;;;5087340;28;46774;-14
2022/01/23 06:02:10;;;;;;;1.80;1.70;;;18.30;31.70;;;;;;5086572;28;49081;-14
2022/01/23 06:04:36;;;;;;;2.05;1.70;;;18.30;31.80;;;;;;5087016;28;47008;-14
2022/01/23 06:07:04;;;;;;;2.53;2.03;;;18.30;31.70;;;;;;5087746;28;46987;-20
2022/01/23 06:09:30;;;;;;;2.03;1.83;;;18.30;31.80;;;;;;5087428;28;46851;-20
2022/01/23 06:11:57;;;;;;;2.00;1.90;;;18.30;31.70;;;;;;5087245;28;48814;-21
2022/01/23 06:14:26;;;;;;;1.67;1.50;;;18.30;31.80;;;;;;5086900;28;46985;-20
2022/01/23 06:16:53;;;;;;;1.60;1.50;;;18.30;31.80;;;;;;5087568;28;46901;-20
2022/01/23 06:19:20;;;;;;;2.10;2.00;;;18.30;31.80;;;;;;5086932;28;46872;-20
2022/01/23 06:21:46;;;;;;;1.88;1.77;;;18.40;31.80;;;;;;5086877;28;46954;-20
2022/01/23 06:24:22;;;;;;;2.38;1.92;;;18.40;31.70;;;;;;5086968;28;46752;-20
2022/01/23 06:26:50;;;;;;;1.83;1.67;;;18.40;31.70;;;;;;5087285;28;46909;-20
2022/01/23 06:29:18;;;;;;;2.35;1.70;;;18.40;31.70;;;;;;5087098;28;47093;-21
2022/01/23 06:31:46;;;;;;;2.17;1.67;;;18.40;31.70;;;;;;5086883;28;49172;-20
2022/01/23 06:34:14;;;;;;;1.70;1.60;;;18.40;32.30;;;;;;5086075;28;47049;-20
2022/01/23 06:36:40;;;;;;;2.45;1.70;;;18.40;31.70;;;;;;5087208;28;46795;-20
2022/01/23 06:39:10;;;;;;;1.90;1.50;;;18.40;31.70;;;;;;5087090;27;47166;-20
2022/01/23 06:41:37;;;;;;;1.73;1.60;;;18.40;31.80;;;;;;5086573;28;48748;-20
2022/01/23 06:44:04;;;;;;;1.83;1.73;;;18.40;31.70;;;;;;5086826;28;46998;-20
2022/01/23 06:46:31;;;;;;;1.88;1.77;;;18.40;31.70;;;;;;5086661;28;46946;-21
2022/01/23 06:48:59;;;;;;;1.60;1.50;;;18.40;31.80;;;;;;5086853;27;46927;-21
2022/01/23 06:51:26;;;;;;;1.67;1.58;;;18.40;31.80;;;;;;5086766;28;46923;-20
2022/01/23 06:53:52;;;;;;;1.60;1.50;;;18.30;31.80;;;;;;5086631;28;47265;-20
2022/01/23 06:56:19;;;;;;;2.40;1.60;;;18.30;31.90;;;;;;5086835;28;46908;-20
2022/01/23 06:58:46;;;;;;;1.85;1.75;;;18.30;31.80;;;;;;5086643;28;47182;-21
2022/01/23 07:01:12;;;;;;;2.10;1.80;;;18.30;31.80;;;;;;5086578;28;48791;-20
2022/01/23 07:03:39;;;;;;;3.08;2.00;;;18.30;31.80;;;;;;5086441;28;47273;-20
2022/01/23 07:06:07;;;;;;;2.00;1.70;;;18.30;31.90;;;;;;5086383;28;46904;-21
2022/01/23 07:08:34;;;;;;;1.70;1.58;;;18.30;31.90;;;;;;5086515;28;47095;-21
2022/01/23 07:11:01;;;;;;;1.67;1.50;;;18.30;31.90;;;;;;5086481;28;47099;-21
2022/01/23 07:13:27;;;;;;;2.38;1.77;;;18.30;31.90;;;;;;5085520;27;46933;-20
2022/01/23 07:15:54;;;;;;;1.50;1.40;;;18.30;31.90;;;;;;5086411;28;47111;-20
2022/01/23 07:18:21;;;;;;;1.83;1.65;;;18.30;32.00;;;;;;5086382;28;47284;-21
2022/01/23 07:20:48;;;;;;;1.73;1.63;;;18.30;31.90;;;;;;5085934;28;47083;-20
2022/01/23 07:23:21;;;;;;;1.90;1.60;;;18.30;31.90;;;;;;5086049;28;47328;-20
2022/01/23 07:25:47;;;;;;;1.77;1.67;;;18.30;31.90;;;;;;5086399;27;46864;-20
2022/01/23 07:28:17;;;;;;;1.77;1.67;;;18.30;31.90;;;;;;5085965;28;47016;-22
2022/01/23 07:30:49;;;;;;;1.58;1.48;;;18.30;32.00;;;;;;5085998;28;48229;-20
2022/01/23 07:33:16;;;;;;;1.80;1.70;;;18.30;32.00;;;;;;5085491;28;47380;-21
2022/01/23 07:35:43;;;;;;;2.20;1.75;;;18.30;32.00;;;;;;5085997;28;47129;-13
2022/01/23 07:38:11;;;;;;;1.90;1.80;;;18.30;32.00;;;;;;5086030;28;46866;-13
2022/01/23 07:40:39;;;;;;;1.88;1.77;;;18.20;31.90;;;;;;5085850;27;46790;-13
2022/01/23 07:43:05;;;;;;;1.88;1.77;;;18.30;31.90;;;;;;5085467;28;47283;-18
2022/01/23 07:45:32;;;;;;;2.05;1.90;;;18.30;32.00;;;;;;5085748;28;47056;-14
2022/01/23 07:47:59;;;;;;;1.80;1.70;;;18.30;31.90;;;;;;5085558;28;47120;-14
2022/01/23 07:50:25;;;;;;;2.10;1.70;;;18.30;31.90;;;;;;5086037;28;48149;-14
2022/01/23 07:52:52;;;;;;;2.60;1.85;;;18.30;32.00;;;;;;5085480;28;48459;-14
2022/01/23 07:55:19;;;;;;;1.83;1.70;;;18.30;32.00;;;;;;5085507;28;46889;-14
2022/01/23 07:57:47;;;;;;;1.90;1.70;;;18.30;31.90;;;;;;5085954;28;46971;-14
2022/01/23 08:00:14;;;;;;;1.60;1.50;;;18.30;31.90;;;;;;5085634;28;47866;-14
2022/01/23 08:02:41;;;;;;;1.80;1.70;;;18.30;31.90;;;;;;5085786;27;46831;-14
2022/01/23 08:05:10;;;;;;;1.75;1.50;;;18.30;31.90;;;;;;5085720;28;46989;-14
2022/01/23 08:07:37;;;;;;;1.88;1.70;;;18.30;31.90;;;;;;5085501;27;47294;-13
2022/01/23 08:10:05;;;;;;;1.98;1.77;;;18.30;31.90;;;;;;5085550;28;48210;-14
2022/01/23 08:12:31;;;;;;;1.80;1.70;;;18.30;31.90;;;;;;5085078;27;47086;-13
2022/01/23 08:15:00;;;;;;;2.33;1.80;;;18.30;31.80;;;;;;5085288;28;46838;-14
2022/01/23 08:17:27;;;;;;;2.03;1.90;;;18.30;31.80;;;;;;5085704;28;46850;-13
2022/01/23 08:19:53;;;;;;;1.40;1.30;;;18.30;31.80;;;;;;5085258;28;47955;-13
2022/01/23 08:22:20;;;;;;;2.13;1.42;;;18.40;31.80;;;;;;5085381;28;46846;-14
2022/01/23 08:24:47;;;;;;;1.90;1.80;;;18.30;31.70;;;;;;5086972;27;47169;-14
2022/01/23 08:27:14;;;;;;;1.60;1.50;;;18.30;31.70;;;;;;5088991;28;47178;-13
2022/01/23 08:29:41;;;;;;;1.85;1.63;;;18.40;31.80;;;;;;5088692;28;46923;-14
2022/01/23 08:32:09;;;;;;;1.70;1.52;;;18.40;31.70;;;;;;5088616;28;46939;-13
2022/01/23 08:34:36;;;;;;;1.60;1.50;;;18.40;31.70;;;;;;5088561;27;46976;-14
2022/01/23 08:37:03;;;;;;;1.70;1.60;;;18.40;31.70;;;;;;5089118;28;46819;-14
2022/01/23 08:39:32;;;;;;;1.77;1.58;;;18.40;31.70;;;;;;5088524;28;47941;-14
2022/01/23 08:41:59;;;;;;;1.73;1.63;;;18.40;31.70;;;;;;5088514;28;46945;-13
2022/01/23 08:44:27;;;;;;;1.77;1.67;;;18.40;31.60;;;;;;5088849;28;47013;-13
2022/01/23 08:46:54;;;;;;;2.15;1.60;;;18.40;31.70;;;;;;5088826;28;46818;-13
2022/01/23 08:49:23;;;;;;;1.50;1.40;;;18.40;31.70;;;;;;5088317;28;49244;-13
2022/01/23 08:51:51;;;;;;;2.08;1.70;;;18.40;31.60;;;;;;5088596;28;47486;-13
2022/01/23 08:54:17;;;;;;;1.60;1.50;;;18.40;31.60;;;;;;5088504;28;46884;-13
2022/01/23 08:56:44;;;;;;;1.90;1.70;;;18.40;31.60;;;;;;5088368;28;47253;-14
2022/01/23 08:59:11;;;;;;;2.15;1.73;;;18.40;31.60;;;;;;5088196;28;47835;-14
2022/01/23 09:01:38;;;;;;;1.70;1.60;;;18.40;31.60;;;;;;5088474;28;47394;-13
2022/01/23 09:04:05;;;;;;;1.85;1.58;;;18.40;31.60;;;;;;5088294;28;46806;-13
2022/01/23 09:06:33;;;;;;;1.77;1.67;;;18.40;31.60;;;;;;5088633;28;47119;-13
2022/01/23 09:09:01;;;;;;;1.70;1.60;;;18.50;31.60;;;;;;5087746;28;47173;-14
2022/01/23 09:11:39;;;;;;;1.60;1.50;;;18.50;31.50;;;;;;5088239;28;46983;-14
2022/01/23 09:14:07;;;;;;;1.67;1.58;;;18.50;31.60;;;;;;5087954;28;46820;-14
2022/01/23 09:16:34;;;;;;;2.50;1.80;;;18.50;31.50;;;;;;5088069;28;47356;-14
2022/01/23 09:19:01;;;;;;;1.70;1.60;;;18.50;31.60;;;;;;5088366;27;47862;-14
2022/01/23 09:21:28;;;;;;;1.98;1.65;;;18.50;31.60;;;;;;5088166;28;46827;-14
2022/01/23 09:23:56;;;;;;;1.63;1.52;;;18.50;31.50;;;;;;5087971;28;47083;-20
2022/01/23 09:26:23;;;;;;;1.98;1.55;;;18.50;31.60;;;;;;5088243;28;46889;-20
2022/01/23 09:28:52;;;;;;;1.73;1.63;;;18.50;31.60;;;;;;5087527;28;47962;-20
2022/01/23 09:31:28;;;;;;;2.25;1.50;;;18.50;31.60;;;;;;5087606;28;47012;-20
2022/01/23 09:33:55;;;;;;;1.83;1.67;;;18.50;31.60;;;;;;5087479;28;46865;-20
2022/01/23 09:36:21;;;;;;;1.85;1.70;;;18.50;31.60;;;;;;5087923;27;46840;-22
2022/01/23 09:38:48;;;;;;;2.00;1.77;;;18.50;31.70;;;;;;5087368;28;48765;-21
2022/01/23 09:41:18;;;;;;;1.88;1.70;;;18.50;31.70;;;;;;5087610;28;46854;-20
2022/01/23 09:43:45;;;;;;;1.67;1.58;;;18.50;31.70;;;;;;5087699;28;47007;-21
2022/01/23 09:46:11;;;;;;;1.60;1.50;;;18.50;31.70;;;;;;5087767;28;47148;-21
2022/01/23 09:48:38;;;;;;;1.70;1.60;;;18.60;31.70;;;;;;5087380;28;49058;-21
2022/01/23 09:51:05;;;;;;;2.25;1.90;;;18.60;31.70;;;;;;5087755;28;46875;-21
2022/01/23 09:53:32;;;;;;;1.73;1.60;;;18.50;31.70;;;;;;5087605;28;46813;-21
2022/01/23 09:56:04;;;;;;;2.55;1.63;;;18.60;31.80;;;;;;5087930;28;47053;-20
2022/01/23 09:58:32;;;;;;;1.73;1.63;;;18.60;31.80;;;;;;5087331;28;48084;-21
2022/01/23 10:00:59;;;;;;;2.10;1.90;;;18.60;31.80;;;;;;5087465;28;47076;-21
2022/01/23 10:03:25;;;;;;;1.48;1.38;;;18.60;31.70;;;;;;5087011;28;46902;-21
2022/01/23 10:05:54;;;;;;;2.63;1.55;;;18.70;31.70;;;;;;5087385;28;47146;-20
2022/01/23 10:08:20;;;;;;;1.70;1.60;;;18.70;31.70;;;;;;5086935;28;47723;-21
2022/01/23 10:10:51;;;;;;;1.85;1.70;;;18.70;31.70;;;;;;5087361;28;46854;-21
2022/01/23 10:13:18;;;;;;;1.70;1.60;;;18.70;31.70;;;;;;5087228;27;46784;-20
2022/01/23 10:15:46;;;;;;;1.88;1.40;;;18.70;31.70;;;;;;5087641;28;46867;-21
2022/01/23 10:18:13;;;;;;;1.60;1.50;;;18.70;31.70;;;;;;5087058;28;48372;-21
2022/01/23 10:20:39;;;;;;;1.80;1.70;;;18.70;31.70;;;;;;5086885;28;46948;-21
2022/01/23 10:23:06;;;;;;;2.28;1.70;;;18.80;31.70;;;;;;5087011;28;46955;-21
2022/01/23 10:25:33;;;;;;;1.60;1.50;;;18.80;31.70;;;;;;5087102;28;47046;-20
2022/01/23 10:28:03;;;;;;;1.50;1.40;;;18.80;31.60;;;;;;5086887;28;48828;-20
2022/01/23 10:30:33;;;;;;;1.70;1.60;;;18.80;31.60;;;;;;5087172;27;47544;-21
2022/01/23 10:33:07;;;;;;;1.80;1.65;;;18.90;31.60;;;;;;5086660;28;46937;-22
2022/01/23 10:35:35;;;;;;;1.65;1.55;;;18.90;31.60;;;;;;5087139;28;47134;-22
2022/01/23 10:38:07;;;;;;;1.58;1.48;;;18.90;31.60;;;;;;5086562;28;49054;-21
2022/01/23 10:40:37;;;;;;;1.92;1.73;;;18.90;31.60;;;;;;5086827;28;46912;-21
2022/01/23 10:48:46;;;;;;;1.75;1.50;;;19.00;31.60;;;;;;5084772;28;47388;-20
2022/01/23 10:51:23;;;;;;;1.52;1.42;;;19.10;32.20;;;;;;5086572;28;46947;-20
2022/01/23 10:54:04;;;;;;;1.70;1.60;;;19.10;31.50;;;;;;5086510;28;46970;-19
2022/01/23 10:56:33;;;;;;;1.75;1.65;;;19.10;31.60;;;;;;5086724;27;47032;-20
2022/01/23 10:59:01;;;;;;;1.50;1.40;;;19.10;31.50;;;;;;5086348;28;48832;-20
2022/01/23 11:01:29;;;;;;;1.73;1.63;;;19.10;31.50;;;;;;5086649;28;46883;-19
2022/01/23 11:04:11;;;;;;;3.13;1.70;;;19.10;31.50;;;;;;5086223;28;47016;-19
2022/01/23 11:06:54;;;;;;;2.78;1.73;;;19.20;31.50;;;;;;5086403;28;46951;-19
2022/01/23 11:09:24;;;;;;;1.60;1.50;;;19.20;31.50;;;;;;5086299;28;48208;-20
2022/01/23 11:11:59;;;;;;;1.88;1.77;;;19.20;31.50;;;;;;5086075;27;47010;-20
2022/01/23 11:17:23;;;;;;;1.70;1.60;;;19.30;31.50;;;;;;5083735;28;47003;-20
2022/01/23 11:19:55;;;;;;;1.65;1.42;;;19.30;31.40;;;;;;5085740;28;48193;-19
2022/01/23 11:22:24;;;;;;;1.75;1.65;;;19.30;31.40;;;;;;5086324;28;46938;-20
2022/01/23 11:24:52;;;;;;;1.60;1.50;;;19.40;31.50;;;;;;5086147;28;46931;-19
2022/01/23 11:27:19;;;;;;;1.88;1.70;;;19.40;31.50;;;;;;5086254;28;47118;-20
2022/01/23 11:29:56;;;;;;;1.60;1.50;;;19.40;31.50;;;;;;5085918;28;46925;-20
2022/01/23 11:32:24;;;;;;;1.73;1.60;;;19.40;31.40;;;;;;5085528;28;47161;-20
2022/01/23 11:34:57;;;;;;;3.72;1.60;;;19.40;31.40;;;;;;5085326;28;47048;-20
2022/01/23 11:37:24;;;;;;;1.52;1.42;;;19.40;31.50;;;;;;5086093;27;46937;-20
2022/01/23 11:39:56;;;;;;;1.73;1.63;;;19.40;31.50;;;;;;5085560;28;46814;-20
2022/01/23 11:51:02;;;;;;;1.90;1.80;;;19.40;31.60;;;;;;5083070;28;46852;-19
2022/01/23 11:53:47;;;;;;;2.33;1.77;;;19.40;31.50;;;;;;5085282;28;46964;-19
2022/01/23 11:56:37;;;;;;;1.70;1.40;;;19.50;31.50;;;;;;5085645;28;46883;-19
2022/01/23 11:59:29;;;;;;;1.67;1.50;;;19.50;31.50;;;;;;5085578;27;46830;-20
2022/01/23 12:02:26;;;;;;;2.25;1.63;;;19.60;31.40;;;;;;5085637;28;48841;-20
2022/01/23 12:05:20;;;;;;;1.75;1.65;;;19.60;31.40;;;;;;5085632;28;47037;-20
2022/01/23 12:08:16;;;;;;;1.50;1.40;;;19.70;31.40;;;;;;5085373;28;46936;-19
2022/01/23 12:11:03;;;;;;;3.70;1.70;;;19.70;31.90;;;;;;5086038;27;47185;-19
2022/01/23 12:13:56;;;;;;;1.90;1.80;;;19.70;31.20;;;;;;5084901;27;48943;-19
2022/01/23 12:16:26;;;;;;;1.70;1.60;;;19.80;31.10;;;;;;5085647;28;46964;-19
2022/01/23 12:19:15;;;;;;;1.67;1.58;;;19.90;31.10;;;;;;5085161;27;47017;-21
2022/01/23 12:21:42;;;;;;;1.50;1.40;;;19.90;31.10;;;;;;5085377;27;46913;-20
2022/01/23 12:24:12;;;;;;;1.70;1.60;;;20.00;31.00;;;;;;5084866;28;49109;-20
2022/01/23 12:26:39;;;;;;;1.40;1.30;;;20.00;31.00;;;;;;5085531;28;46981;-20
2022/01/23 12:29:10;;;;;;;1.58;1.38;;;20.00;31.00;;;;;;5085221;28;46830;-20
2022/01/23 12:31:37;;;;;;;1.50;1.40;;;20.00;31.00;;;;;;5085614;28;46889;-20
2022/01/23 12:34:04;;;;;;;1.70;1.60;;;20.00;30.90;;;;;;5084169;28;46984;-20
2022/01/23 12:36:32;;;;;;;1.77;1.50;;;19.90;30.90;;;;;;5085386;28;47331;-20
2022/01/23 12:39:18;;;;;;;1.50;1.35;;;20.00;31.00;;;;;;5085322;28;46921;-20
2022/01/23 12:41:54;;;;;;;1.55;1.45;;;19.90;31.10;;;;;;5085481;28;46908;-20
2022/01/23 12:44:33;;;;;;;1.75;1.58;;;19.80;31.20;;;;;;5085440;27;49223;-21
2022/01/23 12:47:01;;;;;;;3.55;1.55;;;19.80;31.20;;;;;;5084915;28;46898;-21
2022/01/23 12:49:29;;;;;;;1.55;1.45;;;19.80;31.30;;;;;;5085179;28;46893;-21
2022/01/23 12:52:13;;;;;;;1.55;1.45;;;19.70;31.40;;;;;;5084988;28;47274;-21
2022/01/23 12:54:56;;;;;;;1.60;1.50;;;19.60;31.50;;;;;;5084424;27;47082;-21
2022/01/23 12:57:25;;;;;;;1.48;1.38;;;19.50;31.70;;;;;;5084722;28;47002;-21
2022/01/23 12:59:52;;;;;;;1.77;1.17;;;19.40;31.80;;;;;;5084889;28;46991;-20
2022/01/23 13:02:20;;;;;;;1.50;1.40;;;19.40;32.00;;;;;;5085046;28;46909;-20
2022/01/23 13:04:47;;;;;;;2.05;1.38;;;19.30;32.00;;;;;;5084429;28;47916;-22
2022/01/23 13:07:25;;;;;;;1.25;1.15;;;19.30;32.10;;;;;;5084440;28;47428;-21
2022/01/23 13:09:59;;;;;;;1.38;1.27;;;19.20;32.20;;;;;;5085190;27;46956;-20
2022/01/23 13:12:47;;;;;;;1.33;1.23;;;19.20;32.30;;;;;;5086870;28;46957;-20
2022/01/23 13:15:23;;;;;;;1.08;1.00;;;19.10;32.30;;;;;;5087917;27;48391;-21
2022/01/23 13:18:01;;;;;;;1.30;1.20;;;19.10;32.20;;;;;;5087890;28;46869;-21
2022/01/23 13:31:41;;;;;;;0.95;0.95;;;19.10;32.20;;;;;;5085110;28;46921;-21
2022/01/23 13:34:28;;;;;;;1.83;1.10;;;19.10;32.20;;;;;;5087105;27;46946;-21
2022/01/23 13:36:59;;;;;;;1.63;1.20;;;19.10;32.40;;;;;;5087391;28;48876;-21
2022/01/23 13:39:28;;;;;;;1.27;1.17;;;19.00;32.40;;;;;;5087370;28;47111;-21
2022/01/23 13:42:31;;;;;;;1.50;1.10;;;19.00;32.60;;;;;;5087812;28;46893;-21
2022/01/23 13:48:06;;;;;;;2.00;1.05;;;18.90;32.60;;;;;;5082434;28;46793;-21
2022/01/23 13:53:27;;;;;;;2.50;1.00;;;18.70;32.80;;;;;;5064504;28;47014;-21
2022/01/23 13:58:41;;;;;;;0.90;0.90;;;18.70;33.00;;;;;;5063572;28;47047;-21
2022/01/23 14:01:33;;;;;;;1.27;1.17;;;18.70;33.00;;;;;;5065072;28;46990;-20
2022/01/23 14:04:00;;;;;;;1.10;1.05;;;18.60;33.00;;;;;;5063895;28;46906;-21
2022/01/23 14:06:27;;;;;;;1.00;0.90;;;18.60;33.00;;;;;;5065819;28;46955;-20
2022/01/23 14:09:05;;;;;;;1.20;1.10;;;18.70;33.00;;;;;;5065759;28;49070;-21
2022/01/23 14:11:31;;;;;;;0.85;0.85;;;18.70;32.90;;;;;;5067121;28;47119;-20
2022/01/23 14:14:11;;;;;;;1.23;1.13;;;18.70;33.40;;;;;;5066916;28;47036;-21
2022/01/23 14:16:38;;;;;;;0.80;0.80;;;18.80;32.80;;;;;;5067346;28;47027;-20
2022/01/23 14:19:18;;;;;;;1.02;0.98;;;18.80;32.70;;;;;;5066810;28;47949;-20
2022/01/23 14:21:46;;;;;;;1.58;1.00;;;18.80;32.60;;;;;;5066092;28;46890;-21
2022/01/23 14:24:19;;;;;;;1.10;1.10;;;18.90;33.20;;;;;;5066928;28;46996;-21
2022/01/23 14:26:56;;;;;;;1.10;1.00;;;18.90;32.60;;;;;;5067404;28;47001;-21
2022/01/23 14:29:24;;;;;;;1.20;1.10;;;18.90;32.60;;;;;;5066701;28;46876;-21
2022/01/23 14:32:05;;;;;;;1.38;1.27;;;18.90;32.60;;;;;;5066459;28;46891;-21
2022/01/23 14:34:32;;;;;;;0.80;0.77;;;18.80;32.60;;;;;;5066166;28;46988;-21
2022/01/23 14:37:03;;;;;;;1.20;1.10;;;18.80;32.60;;;;;;5066680;28;46822;-20
2022/01/23 14:39:30;;;;;;;0.93;0.93;;;18.80;32.70;;;;;;5066476;28;48251;-20
2022/01/23 14:41:57;;;;;;;1.55;1.00;;;18.80;32.70;;;;;;5066315;28;46815;-21
2022/01/23 14:44:27;;;;;;;0.93;0.93;;;18.80;32.80;;;;;;5066245;28;46915;-20
2022/01/23 14:46:54;;;;;;;0.90;0.73;;;18.70;32.80;;;;;;5066828;28;46909;-20
2022/01/23 14:49:24;;;;;;;0.82;0.82;;;18.70;32.90;;;;;;5066185;28;47927;-21
2022/01/23 14:51:51;;;;;;;0.90;0.90;;;18.70;32.90;;;;;;5066383;28;47046;-20
2022/01/23 14:54:18;;;;;;;0.88;0.82;;;18.70;32.90;;;;;;5066072;28;46927;-21
2022/01/23 14:56:45;;;;;;;0.90;0.90;;;18.60;32.90;;;;;;5066564;28;46903;-20
2022/01/23 14:59:11;;;;;;;1.10;1.00;;;18.70;32.90;;;;;;5065619;28;47871;-21
2022/01/23 15:01:40;;;;;;;1.05;0.98;;;18.70;32.90;;;;;;5066467;28;47545;-20
2022/01/23 15:04:08;;;;;;;1.33;1.00;;;18.70;32.80;;;;;;5066375;28;47067;-20
2022/01/23 15:06:35;;;;;;;0.90;0.90;;;18.80;32.80;;;;;;5066530;28;47299;-21
2022/01/23 15:09:05;;;;;;;1.20;1.10;;;18.80;32.60;;;;;;5066134;28;49082;-20
2022/01/23 15:11:32;;;;;;;1.10;1.00;;;18.90;32.50;;;;;;5066190;28;46906;-21